createdAt,value
2018-03-11T00:01:38.456Z,7.90
2018-03-11T00:04:05.987Z,8.30
2018-03-11T00:06:33.502Z,8.90
2018-03-11T00:09:01.005Z,9.47
2018-03-11T00:11:28.527Z,9.40
2018-03-11T00:13:56.035Z,9.97
2018-03-11T00:16:23.529Z,9.87
2018-03-11T00:18:51.054Z,9.90
2018-03-11T00:21:19.306Z,10.10
2018-03-11T00:23:46.839Z,8.80
2018-03-11T00:26:14.349Z,9.93
2018-03-11T00:28:42.705Z,9.00
2018-03-11T00:31:10.207Z,9.23
2018-03-11T00:33:38.470Z,8.50
2018-03-11T00:36:05.958Z,8.30
2018-03-11T00:38:33.460Z,8.60
2018-03-11T00:41:00.950Z,8.70
2018-03-11T00:43:29.248Z,7.70
2018-03-11T00:45:56.808Z,7.40
2018-03-11T00:48:24.316Z,7.97
2018-03-11T00:50:51.823Z,7.00
2018-03-11T00:53:19.342Z,7.47
2018-03-11T00:55:46.872Z,7.00
2018-03-11T00:58:14.394Z,6.40
2018-03-11T01:00:42.684Z,7.00
2018-03-11T01:03:10.198Z,7.40
2018-03-11T01:05:37.731Z,6.57
2018-03-11T01:08:05.257Z,7.27
2018-03-11T01:10:32.748Z,7.73
2018-03-11T01:13:00.254Z,7.13
2018-03-11T01:15:27.770Z,7.67
2018-03-11T01:17:55.261Z,7.40
2018-03-11T01:20:22.762Z,7.13
2018-03-11T01:22:51.033Z,7.27
2018-03-11T01:25:18.598Z,7.40
2018-03-11T01:27:46.113Z,8.43
2018-03-11T01:30:13.640Z,9.63
2018-03-11T01:32:41.183Z,10.03
2018-03-11T01:35:08.795Z,9.87
2018-03-11T01:37:36.348Z,9.17
2018-03-11T01:40:03.961Z,8.93
2018-03-11T01:42:32.275Z,11.33
2018-03-11T01:44:59.843Z,11.23
2018-03-11T01:47:27.360Z,9.60
2018-03-11T01:49:55.678Z,9.30
2018-03-11T01:52:23.177Z,9.90
2018-03-11T01:54:50.722Z,9.97
2018-03-11T01:57:18.221Z,9.47
2018-03-11T01:59:45.751Z,9.63
2018-03-11T02:02:13.302Z,11.20
2018-03-11T02:04:40.822Z,10.70
2018-03-11T02:07:08.329Z,11.70
2018-03-11T02:09:35.875Z,11.20
2018-03-11T02:12:03.393Z,11.20
2018-03-11T02:14:30.896Z,11.50
2018-03-11T02:16:58.403Z,11.13
2018-03-11T02:19:25.908Z,10.60
2018-03-11T02:21:53.426Z,10.73
2018-03-11T02:24:20.947Z,10.03
2018-03-11T02:26:48.447Z,10.30
2018-03-11T02:29:16.709Z,10.03
2018-03-11T02:31:44.243Z,10.30
2018-03-11T02:34:11.762Z,9.97
2018-03-11T02:36:39.301Z,10.57
2018-03-11T02:39:06.812Z,9.63
2018-03-11T02:41:34.321Z,9.53
2018-03-11T02:44:01.820Z,9.03
2018-03-11T02:46:29.321Z,10.03
2018-03-11T02:48:57.590Z,10.33
2018-03-11T02:51:25.112Z,10.20
2018-03-11T02:53:52.630Z,10.87
2018-03-11T02:56:20.917Z,10.77
2018-03-11T02:58:48.429Z,11.30
2018-03-11T03:01:15.929Z,11.23
2018-03-11T03:03:44.206Z,11.23
2018-03-11T03:06:11.702Z,11.30
2018-03-11T03:08:39.208Z,11.13
2018-03-11T03:11:06.722Z,11.83
2018-03-11T03:13:34.223Z,12.10
2018-03-11T03:16:01.721Z,11.97
2018-03-11T03:18:29.237Z,12.40
2018-03-11T03:20:56.751Z,14.03
2018-03-11T03:23:24.273Z,14.23
2018-03-11T03:25:52.534Z,14.77
2018-03-11T03:28:20.037Z,14.23
2018-03-11T03:30:47.598Z,14.40
2018-03-11T03:33:15.101Z,15.60
2018-03-11T03:35:42.633Z,17.03
2018-03-11T03:38:10.172Z,17.63
2018-03-11T03:40:37.718Z,15.63
2018-03-11T03:43:06.004Z,15.67
2018-03-11T03:45:33.498Z,14.90
2018-03-11T03:48:01.005Z,17.13
2018-03-11T03:50:29.287Z,15.77
2018-03-11T03:52:56.807Z,17.63
2018-03-11T03:55:24.342Z,17.93
2018-03-11T03:57:51.833Z,17.30
2018-03-11T04:00:19.327Z,15.77
2018-03-11T04:02:46.845Z,18.67
2018-03-11T04:05:14.344Z,16.63
2018-03-11T04:07:41.833Z,15.87
2018-03-11T04:10:09.344Z,17.63
2018-03-11T04:12:36.852Z,16.77
2018-03-11T04:15:04.360Z,18.43
2018-03-11T04:17:31.844Z,16.83
2018-03-11T04:19:59.343Z,18.90
2018-03-11T04:22:26.880Z,18.33
2018-03-11T04:24:54.397Z,17.83
2018-03-11T04:27:21.924Z,16.83
2018-03-11T04:29:50.199Z,19.53
2018-03-11T04:32:17.706Z,18.33
2018-03-11T04:34:45.213Z,18.33
2018-03-11T04:37:12.716Z,19.10
2018-03-11T04:39:40.231Z,19.67
2018-03-11T04:42:07.744Z,19.37
2018-03-11T04:44:35.257Z,17.90
2018-03-11T04:47:02.801Z,15.03
2018-03-11T04:49:31.057Z,19.27
2018-03-11T04:51:58.570Z,20.17
2018-03-11T04:54:26.056Z,17.73
2018-03-11T04:56:53.554Z,20.13
2018-03-11T04:59:21.864Z,17.23
2018-03-11T05:01:49.425Z,21.00
2018-03-11T05:04:16.934Z,19.47
2018-03-11T05:06:44.445Z,19.30
2018-03-11T05:09:11.943Z,18.93
2018-03-11T05:11:39.483Z,18.70
2018-03-11T05:14:07.009Z,18.57
2018-03-11T05:16:34.524Z,19.10
2018-03-11T05:19:02.013Z,19.47
2018-03-11T05:21:29.556Z,19.93
2018-03-11T05:23:57.056Z,19.43
2018-03-11T05:26:24.582Z,19.00
2018-03-11T05:28:52.902Z,20.83
2018-03-11T05:31:20.471Z,21.80
2018-03-11T05:33:48.010Z,24.60
2018-03-11T05:36:15.513Z,20.93
2018-03-11T05:38:43.014Z,22.43
2018-03-11T05:41:10.537Z,22.47
2018-03-11T05:43:38.035Z,23.70
2018-03-11T05:46:05.563Z,24.50
2018-03-11T05:48:33.073Z,22.97
2018-03-11T05:51:00.583Z,23.10
2018-03-11T05:53:28.131Z,24.70
2018-03-11T05:55:55.640Z,24.90
2018-03-11T05:58:23.327Z,21.60
2018-03-11T06:00:50.852Z,22.10
2018-03-11T06:03:19.142Z,24.13
2018-03-11T06:05:46.659Z,22.27
2018-03-11T06:08:14.197Z,21.67
2018-03-11T06:10:41.700Z,20.73
2018-03-11T06:13:09.203Z,22.47
2018-03-11T06:15:36.721Z,19.53
2018-03-11T06:18:04.988Z,20.83
2018-03-11T06:20:32.492Z,24.23
2018-03-11T06:23:00.012Z,22.23
2018-03-11T06:25:27.527Z,22.43
2018-03-11T06:27:55.038Z,21.47
2018-03-11T06:30:22.549Z,18.87
2018-03-11T06:32:50.040Z,21.23
2018-03-11T06:35:17.605Z,21.67
2018-03-11T06:37:45.137Z,21.93
2018-03-11T06:40:12.687Z,23.00
2018-03-11T06:42:40.233Z,23.17
2018-03-11T06:45:07.736Z,24.43
2018-03-11T06:47:35.253Z,26.07
2018-03-11T06:50:02.840Z,21.27
2018-03-11T06:52:30.351Z,21.00
2018-03-11T06:54:58.619Z,22.43
2018-03-11T06:57:26.882Z,25.80
2018-03-11T06:59:54.421Z,25.90
2018-03-11T07:02:21.960Z,27.07
2018-03-11T07:04:49.493Z,27.87
2018-03-11T07:07:17.749Z,27.03
2018-03-11T07:09:46.030Z,23.13
2018-03-11T07:12:13.547Z,24.23
2018-03-11T07:14:41.046Z,27.60
2018-03-11T07:17:09.360Z,24.50
2018-03-11T07:19:36.861Z,22.57
2018-03-11T07:22:04.388Z,25.77
2018-03-11T07:24:31.902Z,24.90
2018-03-11T07:26:59.415Z,26.40
2018-03-11T07:29:27.003Z,27.07
2018-03-11T07:31:54.498Z,24.07
2018-03-11T07:34:22.805Z,25.83
2018-03-11T07:36:50.309Z,26.83
2018-03-11T07:39:17.842Z,27.63
2018-03-11T07:41:45.429Z,26.37
2018-03-11T07:44:13.000Z,27.97
2018-03-11T07:46:40.514Z,27.33
2018-03-11T07:49:08.067Z,30.07
2018-03-11T07:51:36.079Z,31.97
2018-03-11T07:54:03.598Z,25.47
2018-03-11T07:56:31.416Z,25.07
2018-03-11T07:58:58.937Z,25.87
2018-03-11T08:01:26.469Z,28.63
2018-03-11T08:03:54.901Z,24.37
2018-03-11T08:06:22.409Z,27.70
2018-03-11T08:08:49.956Z,28.37
2018-03-11T08:11:17.498Z,26.47
2018-03-11T08:13:45.020Z,24.43
2018-03-11T08:16:12.583Z,24.80
2018-03-11T08:18:40.135Z,27.40
2018-03-11T08:21:07.650Z,26.90
2018-03-11T08:23:36.036Z,22.40
2018-03-11T08:26:04.413Z,26.07
2018-03-11T08:28:32.850Z,26.37
2018-03-11T08:31:00.378Z,23.60
2018-03-11T08:33:27.923Z,23.13
2018-03-11T08:35:55.472Z,24.83
2018-03-11T08:38:23.798Z,21.63
2018-03-11T08:40:51.325Z,25.90
2018-03-11T08:43:19.657Z,23.17
2018-03-11T08:45:47.182Z,24.27
2018-03-11T08:48:14.774Z,23.70
2018-03-11T08:50:43.084Z,23.80
2018-03-11T08:53:10.750Z,25.20
2018-03-11T08:55:39.228Z,22.80
2018-03-11T08:58:06.846Z,24.37
2018-03-11T09:00:34.350Z,24.93
2018-03-11T09:03:01.904Z,23.47
2018-03-11T09:05:29.493Z,24.23
2018-03-11T09:07:57.974Z,24.17
2018-03-11T09:10:26.388Z,24.20
2018-03-11T09:12:53.859Z,21.87
2018-03-11T09:15:21.402Z,23.93
2018-03-11T09:17:48.955Z,23.40
2018-03-11T09:20:16.494Z,25.00
2018-03-11T09:22:44.766Z,24.63
2018-03-11T09:25:12.324Z,22.60
2018-03-11T09:27:39.855Z,23.27
2018-03-11T09:30:07.372Z,22.70
2018-03-11T09:32:34.996Z,22.13
2018-03-11T09:35:02.519Z,20.57
2018-03-11T09:37:30.055Z,20.30
2018-03-11T09:39:57.614Z,18.67
2018-03-11T09:42:25.135Z,19.20
2018-03-11T09:44:52.671Z,17.37
2018-03-11T09:47:20.254Z,19.00
2018-03-11T09:49:47.858Z,16.97
2018-03-11T09:52:15.395Z,16.87
2018-03-11T09:54:42.949Z,16.83
2018-03-11T09:57:10.548Z,16.67
2018-03-11T09:59:38.115Z,16.33
2018-03-11T10:02:05.666Z,14.13
2018-03-11T10:04:33.297Z,14.63
2018-03-11T10:07:00.836Z,15.70
2018-03-11T10:09:28.399Z,14.33
2018-03-11T10:11:55.940Z,13.63
2018-03-11T10:14:23.454Z,10.53
2018-03-11T10:16:51.008Z,10.70
2018-03-11T10:19:18.564Z,10.80
2018-03-11T10:21:46.108Z,9.03
2018-03-11T10:24:13.789Z,7.73
2018-03-11T10:26:42.220Z,8.33
2018-03-11T10:29:09.878Z,6.77
2018-03-11T10:31:37.426Z,7.40
2018-03-11T10:34:05.005Z,7.80
2018-03-11T10:36:32.558Z,6.90
2018-03-11T10:39:00.316Z,6.73
2018-03-11T10:41:27.963Z,6.27
2018-03-11T10:43:55.593Z,5.70
2018-03-11T10:46:23.242Z,5.73
2018-03-11T10:48:50.812Z,5.73
2018-03-11T10:51:18.384Z,6.27
2018-03-11T10:53:46.025Z,5.93
2018-03-11T10:56:13.589Z,5.67
2018-03-11T10:58:41.229Z,5.70
2018-03-11T11:01:13.566Z,5.47
2018-03-11T11:03:47.450Z,5.43
2018-03-11T11:06:14.974Z,4.80
2018-03-11T11:08:42.576Z,5.00
2018-03-11T11:11:10.164Z,4.77
2018-03-11T11:13:37.695Z,4.70
2018-03-11T11:16:05.226Z,4.80
2018-03-11T11:18:32.752Z,4.57
2018-03-11T11:21:00.362Z,4.60
2018-03-11T11:23:27.908Z,4.50
2018-03-11T11:25:55.488Z,4.47
2018-03-11T11:28:23.016Z,4.83
2018-03-11T11:30:50.560Z,4.60
2018-03-11T11:33:18.850Z,4.83
2018-03-11T11:35:46.390Z,4.40
2018-03-11T11:38:14.726Z,4.00
2018-03-11T11:40:42.306Z,4.33
2018-03-11T11:43:09.815Z,4.20
2018-03-11T11:45:37.389Z,3.93
2018-03-11T11:48:04.987Z,4.80
2018-03-11T11:50:32.602Z,3.63
2018-03-11T11:53:01.114Z,3.93
2018-03-11T11:55:28.666Z,3.67
2018-03-11T11:57:56.258Z,4.30
2018-03-11T12:00:23.796Z,4.00
2018-03-11T12:02:51.386Z,4.20
2018-03-11T12:05:18.981Z,4.07
2018-03-11T12:07:46.504Z,3.97
2018-03-11T12:10:14.060Z,4.23
2018-03-11T12:12:41.590Z,3.83
2018-03-11T12:15:09.107Z,3.60
2018-03-11T12:17:37.426Z,3.33
2018-03-11T12:20:04.940Z,3.20
2018-03-11T12:22:33.255Z,3.17
2018-03-11T12:25:00.753Z,3.30
2018-03-11T12:27:28.251Z,3.20
2018-03-11T12:29:55.775Z,3.40
2018-03-11T12:32:24.118Z,3.07
2018-03-11T12:34:51.660Z,3.07
2018-03-11T12:37:19.169Z,2.77
2018-03-11T12:39:48.212Z,3.13
2018-03-11T12:42:15.755Z,2.97
2018-03-11T12:44:44.151Z,3.20
2018-03-11T12:47:11.744Z,2.70
2018-03-11T12:49:39.339Z,2.70
2018-03-11T12:52:06.913Z,2.53
2018-03-11T12:54:35.185Z,2.70
2018-03-11T12:57:03.491Z,2.80
2018-03-11T12:59:30.991Z,2.43
2018-03-11T13:01:58.482Z,2.90
2018-03-11T13:04:26.032Z,3.13
2018-03-11T13:06:53.651Z,2.93
2018-03-11T13:09:21.194Z,3.13
2018-03-11T13:11:48.786Z,2.80
2018-03-11T13:14:16.332Z,3.00
2018-03-11T13:16:43.893Z,2.63
2018-03-11T13:19:11.426Z,2.57
2018-03-11T13:21:39.692Z,2.60
2018-03-11T13:24:08.012Z,2.50
2018-03-11T13:26:35.554Z,2.33
2018-03-11T13:29:03.062Z,2.33
2018-03-11T13:31:30.574Z,2.20
2018-03-11T13:34:09.850Z,2.17
2018-03-11T13:36:37.371Z,1.93
2018-03-11T13:42:06.616Z,2.00
2018-03-11T13:44:34.113Z,2.10
2018-03-11T13:47:06.498Z,1.80
2018-03-11T13:49:33.976Z,2.10
2018-03-11T13:52:14.179Z,2.20
2018-03-11T13:54:41.690Z,2.13
2018-03-11T14:00:10.842Z,1.90
2018-03-11T14:02:38.405Z,1.70
2018-03-11T14:05:05.906Z,2.07
2018-03-11T14:07:33.476Z,1.93
2018-03-11T14:10:00.993Z,1.80
2018-03-11T14:12:28.502Z,1.97
2018-03-11T14:14:56.022Z,1.97
2018-03-11T14:17:23.562Z,1.90
2018-03-11T14:19:51.056Z,1.90
2018-03-11T14:22:18.557Z,2.03
2018-03-11T14:24:46.825Z,3.00
2018-03-11T14:27:14.955Z,2.40
2018-03-11T14:29:42.454Z,1.90
2018-03-11T14:32:10.744Z,1.73
2018-03-11T14:34:38.236Z,1.90
2018-03-11T14:37:05.808Z,1.97
2018-03-11T14:39:33.342Z,2.10
2018-03-11T14:42:00.906Z,6.00
2018-03-11T14:44:28.532Z,2.00
2018-03-11T14:46:56.828Z,1.87
2018-03-11T14:49:25.197Z,1.83
2018-03-11T14:51:53.521Z,1.53
2018-03-11T14:54:21.141Z,1.50
2018-03-11T14:56:49.604Z,1.40
2018-03-11T14:59:17.117Z,1.30
2018-03-11T15:01:44.679Z,1.50
2018-03-11T15:04:12.325Z,1.30
2018-03-11T15:06:40.006Z,1.40
2018-03-11T15:09:07.711Z,1.40
2018-03-11T15:11:35.312Z,1.20
2018-03-11T15:14:03.000Z,1.43
2018-03-11T15:16:30.532Z,1.30
2018-03-11T15:18:58.060Z,1.30
2018-03-11T15:21:25.599Z,1.30
2018-03-11T15:23:53.121Z,1.50
2018-03-11T15:26:20.714Z,1.60
2018-03-11T15:28:48.351Z,1.50
2018-03-11T15:31:15.916Z,1.50
2018-03-11T15:33:43.502Z,1.30
2018-03-11T15:36:11.082Z,1.30
2018-03-11T15:38:38.671Z,1.50
2018-03-11T15:41:07.894Z,4.37
2018-03-11T15:43:36.287Z,1.50
2018-03-11T15:46:05.078Z,1.50
2018-03-11T15:48:34.588Z,1.60
2018-03-11T15:51:02.311Z,1.43
2018-03-11T15:53:29.965Z,1.40
2018-03-11T15:55:58.271Z,1.33
2018-03-11T15:58:26.359Z,1.43
2018-03-11T16:00:54.042Z,1.37
2018-03-11T16:03:23.563Z,1.30
2018-03-11T16:05:51.158Z,1.30
2018-03-11T16:08:18.723Z,1.43
2018-03-11T16:10:46.241Z,38.63
2018-03-11T16:13:13.766Z,1.30
2018-03-11T16:15:41.309Z,1.43
2018-03-11T16:18:08.886Z,1.30
2018-03-11T16:20:36.427Z,1.30
2018-03-11T16:23:04.053Z,1.40
2018-03-11T16:25:31.697Z,1.60
2018-03-11T16:27:59.425Z,1.30
2018-03-11T16:30:26.990Z,1.17
2018-03-11T16:32:54.557Z,1.43
2018-03-11T16:35:22.116Z,1.30
2018-03-11T16:37:49.610Z,1.60
2018-03-11T16:40:17.117Z,1.67
2018-03-11T16:42:44.629Z,1.83
2018-03-11T16:45:12.951Z,1.60
2018-03-11T16:47:40.496Z,1.30
2018-03-11T16:50:08.070Z,1.50
2018-03-11T16:52:35.710Z,1.50
2018-03-11T16:55:03.438Z,1.50
2018-03-11T16:57:31.006Z,1.70
2018-03-11T16:59:59.483Z,1.50
2018-03-11T17:02:27.032Z,1.40
2018-03-11T17:04:55.137Z,1.37
2018-03-11T17:07:23.453Z,1.50
2018-03-11T17:09:51.014Z,1.57
2018-03-11T17:12:18.563Z,1.30
2018-03-11T17:14:46.080Z,1.67
2018-03-11T17:17:13.650Z,1.40
2018-03-11T17:19:41.997Z,1.30
2018-03-11T17:22:09.574Z,1.30
2018-03-11T17:24:37.101Z,1.57
2018-03-11T17:27:04.678Z,1.40
2018-03-11T17:29:32.234Z,1.30
2018-03-11T17:31:59.754Z,1.40
2018-03-11T17:34:27.276Z,2.80
2018-03-11T17:36:54.821Z,1.20
2018-03-11T17:39:22.482Z,1.47
2018-03-11T17:41:49.970Z,1.73
2018-03-11T17:44:17.559Z,1.67
2018-03-11T17:46:45.223Z,1.53
2018-03-11T17:49:12.725Z,1.83
2018-03-11T17:51:40.404Z,1.97
2018-03-11T17:54:08.070Z,1.80
2018-03-11T17:56:35.671Z,2.30
2018-03-11T17:59:03.201Z,2.27
2018-03-11T18:01:30.698Z,2.20
2018-03-11T18:03:58.488Z,2.30
2018-03-11T18:06:26.101Z,3.33
2018-03-11T18:08:53.603Z,4.17
2018-03-11T18:11:21.117Z,4.13
2018-03-11T18:13:49.464Z,8.67
2018-03-11T18:16:16.993Z,5.40
2018-03-11T18:18:44.494Z,3.93
2018-03-11T18:21:12.013Z,3.83
2018-03-11T18:23:39.631Z,3.53
2018-03-11T18:26:07.992Z,4.13
2018-03-11T18:28:35.563Z,4.30
2018-03-11T18:31:03.110Z,5.50
2018-03-11T18:33:30.663Z,6.50
2018-03-11T18:35:58.314Z,5.63
2018-03-11T18:38:25.898Z,7.53
2018-03-11T18:40:54.134Z,6.47
2018-03-11T18:43:21.760Z,6.00
2018-03-11T18:45:50.126Z,5.67
2018-03-11T18:48:17.687Z,3.23
2018-03-11T18:50:45.247Z,2.60
2018-03-11T18:53:14.410Z,2.60
2018-03-11T18:55:41.907Z,2.60
2018-03-11T18:58:09.520Z,3.20
2018-03-11T19:00:37.136Z,4.13
2018-03-11T19:03:05.669Z,6.00
2018-03-11T19:05:33.325Z,6.87
2018-03-11T19:08:01.880Z,5.27
2018-03-11T19:10:30.194Z,4.10
2018-03-11T19:12:58.075Z,3.70
2018-03-11T19:15:26.208Z,3.90
2018-03-11T19:17:53.698Z,5.00
2018-03-11T19:20:21.587Z,4.40
2018-03-11T19:22:49.991Z,5.10
2018-03-11T19:25:17.901Z,5.80
2018-03-11T19:27:45.543Z,6.47
2018-03-11T19:30:14.376Z,6.33
2018-03-11T19:32:42.629Z,5.73
2018-03-11T19:35:10.980Z,6.97
2018-03-11T19:37:39.203Z,6.50
2018-03-11T19:40:06.829Z,6.30
2018-03-11T19:42:35.145Z,5.73
2018-03-11T19:45:03.064Z,6.03
2018-03-11T19:47:30.742Z,8.60
2018-03-11T19:49:59.303Z,6.27
2018-03-11T19:52:26.947Z,5.37
2018-03-11T19:54:54.679Z,4.43
2018-03-11T19:57:22.325Z,4.63
2018-03-11T19:59:49.862Z,3.83
2018-03-11T20:02:17.550Z,4.13
2018-03-11T20:04:45.072Z,4.03
2018-03-11T20:07:12.893Z,3.80
2018-03-11T20:09:40.510Z,4.80
2018-03-11T20:12:09.165Z,5.27
2018-03-11T20:14:36.753Z,5.37
2018-03-11T20:17:04.810Z,5.30
2018-03-11T20:19:32.318Z,4.93
2018-03-11T20:22:00.666Z,5.67
2018-03-11T20:24:28.248Z,4.73
2018-03-11T20:26:55.914Z,5.30
2018-03-11T20:29:24.203Z,4.80
2018-03-11T20:31:51.757Z,4.80
2018-03-11T20:34:20.177Z,5.00
2018-03-11T20:36:47.690Z,5.23
2018-03-11T20:39:15.311Z,5.63
2018-03-11T20:41:42.837Z,6.27
2018-03-11T20:44:11.182Z,6.07
2018-03-11T20:46:39.539Z,5.77
2018-03-11T20:49:07.061Z,5.47
2018-03-11T20:51:35.340Z,5.00
2018-03-11T20:54:02.866Z,5.57
2018-03-11T20:56:30.399Z,7.47
2018-03-11T20:58:57.952Z,5.23
2018-03-11T21:01:25.484Z,5.97
2018-03-11T21:03:52.997Z,5.90
2018-03-11T21:06:20.621Z,5.17
2018-03-11T21:08:48.891Z,4.60
2018-03-11T21:11:16.458Z,4.37
2018-03-11T21:13:44.875Z,5.07
2018-03-11T21:16:12.407Z,6.77
2018-03-11T21:18:39.945Z,6.03
2018-03-11T21:21:08.270Z,6.37
2018-03-11T21:23:35.836Z,5.33
2018-03-11T21:26:03.365Z,5.40
2018-03-11T21:28:30.900Z,7.20
2018-03-11T21:30:58.432Z,8.70
2018-03-11T21:33:25.974Z,8.73
2018-03-11T21:35:53.490Z,8.20
2018-03-11T21:38:21.491Z,7.27
2018-03-11T21:40:49.006Z,6.27
2018-03-11T21:43:16.499Z,6.40
2018-03-11T21:45:44.139Z,6.73
2018-03-11T21:48:11.645Z,6.63
2018-03-11T21:50:39.168Z,6.07
2018-03-11T21:53:06.702Z,6.43
2018-03-11T21:55:34.206Z,6.00
2018-03-11T21:58:01.724Z,6.00
2018-03-11T22:00:30.074Z,5.27
2018-03-11T22:02:57.632Z,6.23
2018-03-11T22:05:25.180Z,6.83
2018-03-11T22:07:53.498Z,6.50
2018-03-11T22:10:21.025Z,7.47
2018-03-11T22:12:48.554Z,6.70
2018-03-11T22:15:16.098Z,7.07
2018-03-11T22:17:43.601Z,6.90
2018-03-11T22:20:11.805Z,7.67
2018-03-11T22:22:39.301Z,7.87
2018-03-11T22:25:06.809Z,6.80
2018-03-11T22:27:34.323Z,7.83
2018-03-11T22:30:01.803Z,7.47
2018-03-11T22:32:29.302Z,6.70
2018-03-11T22:34:56.857Z,6.43
2018-03-11T22:37:24.428Z,6.40
2018-03-11T22:39:52.201Z,6.90
2018-03-11T22:42:20.521Z,7.30
2018-03-11T22:44:48.234Z,8.03
2018-03-11T22:47:15.793Z,7.80
2018-03-11T22:49:43.348Z,8.03
2018-03-11T22:52:10.848Z,7.93
2018-03-11T22:54:38.406Z,7.00
2018-03-11T22:57:05.913Z,6.10
2018-03-11T22:59:33.442Z,6.17
2018-03-11T23:02:00.949Z,6.07
2018-03-11T23:04:28.537Z,6.40
2018-03-11T23:06:56.040Z,5.60
2018-03-11T23:09:23.530Z,5.03
2018-03-11T23:11:51.045Z,4.97
2018-03-11T23:14:18.576Z,5.20
2018-03-11T23:16:46.077Z,5.20
2018-03-11T23:19:20.250Z,5.33
2018-03-11T23:21:48.533Z,5.30
2018-03-11T23:24:16.101Z,5.00
2018-03-11T23:26:43.677Z,5.40
2018-03-11T23:29:11.204Z,4.80
2018-03-11T23:31:39.486Z,3.93
2018-03-11T23:34:07.009Z,5.00
2018-03-11T23:36:34.528Z,5.20
2018-03-11T23:39:02.792Z,4.47
2018-03-11T23:41:30.290Z,4.33
2018-03-11T23:43:57.834Z,4.50
2018-03-11T23:46:25.338Z,4.60
2018-03-11T23:48:52.924Z,5.27
2018-03-11T23:51:20.434Z,4.73
2018-03-11T23:53:47.922Z,4.80
2018-03-11T23:56:15.429Z,5.20
2018-03-11T23:58:42.966Z,8.20
